In Rescue
 
Open Full Screen Window  High Contrast Mode
Wind Gusting 19 knots
09
September 23, 2021 2:29 PM EDT
Weather Information
Wind Direction
  300 °
Wind Speed
  09 kt (10 mph)
Wind Gust
  19 kt (22 mph)
Variable Wind
230°
350°
Altimeter
29.95 in
Visibility
10 SM
Temperature
15° C
59° F
Dewpoint
09° C
48° F
Humidity
68%
1hr Rain Fall
00.01 in.
24hr Rain Fall
00.56 in.
Sky Condition
Scattered @ 4,000 ft
VFR

METAR KI19 231829Z AUTO 30009G19KT 230V350 10SM SCT040 15/09 A2995 RMK AO2 T01510085 P0001

FAA Disclaimer: The data displayed is for advisory purposes only and is not to be used for flight planning or operations.